createdAt,value
2018-06-24T00:00:08.934Z,14.50
2018-06-24T00:02:36.601Z,14.50
2018-06-24T00:05:04.080Z,14.40
2018-06-24T00:07:31.653Z,14.40
2018-06-24T00:09:59.123Z,14.50
2018-06-24T00:12:26.539Z,14.30
2018-06-24T00:14:53.985Z,14.40
2018-06-24T00:17:21.348Z,14.40
2018-06-24T00:19:48.851Z,14.40
2018-06-24T00:22:16.439Z,14.40
2018-06-24T00:24:43.905Z,14.40
2018-06-24T00:27:11.367Z,14.40
2018-06-24T00:29:38.739Z,14.40
2018-06-24T00:32:06.100Z,14.40
2018-06-24T00:34:33.466Z,14.40
2018-06-24T00:37:00.870Z,14.40
2018-06-24T00:39:28.382Z,14.40
2018-06-24T00:41:55.754Z,14.40
2018-06-24T00:44:23.171Z,14.50
2018-06-24T00:46:50.605Z,14.50
2018-06-24T00:49:18.034Z,14.50
2018-06-24T00:51:45.821Z,14.50
2018-06-24T00:54:13.161Z,14.60
2018-06-24T00:56:40.504Z,14.60
2018-06-24T00:59:18.279Z,14.60
2018-06-24T01:01:45.687Z,14.60
2018-06-24T01:04:13.039Z,14.60
2018-06-24T01:06:40.396Z,14.60
2018-06-24T01:09:07.880Z,14.50
2018-06-24T01:11:35.215Z,14.60
2018-06-24T01:14:03.337Z,14.60
2018-06-24T01:16:29.947Z,14.60
2018-06-24T01:18:57.335Z,14.60
2018-06-24T01:21:24.885Z,14.60
2018-06-24T01:23:52.287Z,14.50
2018-06-24T01:26:19.807Z,14.50
2018-06-24T01:28:47.190Z,14.40
2018-06-24T01:31:14.609Z,14.40
2018-06-24T01:33:42.056Z,14.40
2018-06-24T01:36:09.470Z,14.40
2018-06-24T01:38:36.799Z,14.40
2018-06-24T01:41:04.155Z,14.40
2018-06-24T01:43:31.515Z,14.40
2018-06-24T01:45:58.863Z,14.30
2018-06-24T01:48:26.259Z,14.20
2018-06-24T01:50:53.649Z,14.10
2018-06-24T01:53:20.995Z,14.00
2018-06-24T01:55:48.380Z,13.90
2018-06-24T01:58:15.928Z,13.90
2018-06-24T02:00:43.452Z,13.90
2018-06-24T02:03:10.899Z,13.90
2018-06-24T02:05:38.293Z,13.90
2018-06-24T02:08:05.716Z,13.80
2018-06-24T02:10:33.148Z,13.80
2018-06-24T02:13:00.611Z,13.80
2018-06-24T02:15:28.034Z,13.80
2018-06-24T02:17:55.442Z,13.80
2018-06-24T02:20:22.846Z,13.80
2018-06-24T02:22:50.280Z,13.80
2018-06-24T02:25:17.844Z,13.80
2018-06-24T02:27:46.837Z,13.70
2018-06-24T02:30:14.323Z,13.90
2018-06-24T02:32:41.747Z,13.90
2018-06-24T02:35:09.173Z,14.00
2018-06-24T02:37:36.543Z,13.90
2018-06-24T02:40:03.961Z,13.90
2018-06-24T02:42:31.347Z,13.90
2018-06-24T02:44:58.811Z,13.90
2018-06-24T02:47:26.220Z,14.00
2018-06-24T02:49:53.628Z,13.90
2018-06-24T02:52:21.120Z,14.00
2018-06-24T02:54:48.499Z,14.10
2018-06-24T02:57:16.504Z,14.10
2018-06-24T02:59:44.036Z,14.20
2018-06-24T03:02:11.428Z,14.20
2018-06-24T03:04:40.292Z,14.30
2018-06-24T03:07:07.814Z,14.20
2018-06-24T03:09:35.213Z,14.20
2018-06-24T03:12:02.603Z,14.30
2018-06-24T03:14:30.026Z,14.40
2018-06-24T03:16:57.451Z,14.30
2018-06-24T03:19:24.914Z,14.30
2018-06-24T03:21:52.450Z,14.40
2018-06-24T03:24:19.939Z,14.40
2018-06-24T03:26:47.412Z,14.40
2018-06-24T03:29:14.819Z,14.40
2018-06-24T03:31:42.314Z,14.40
2018-06-24T03:34:09.753Z,14.40
2018-06-24T03:36:37.235Z,14.40
2018-06-24T03:39:07.464Z,14.50
2018-06-24T03:41:35.083Z,14.50
2018-06-24T03:44:02.567Z,14.40
2018-06-24T03:46:29.987Z,14.50
2018-06-24T03:48:57.443Z,14.50
2018-06-24T03:51:24.845Z,14.60
2018-06-24T03:56:19.764Z,14.70
2018-06-24T03:58:47.211Z,14.90
2018-06-24T04:01:14.668Z,14.80
2018-06-24T04:03:42.243Z,14.80
2018-06-24T04:06:09.635Z,14.70
2018-06-24T04:08:37.431Z,14.90
2018-06-24T04:11:04.850Z,14.80
2018-06-24T04:13:32.440Z,14.80
2018-06-24T04:16:01.476Z,14.80
2018-06-24T04:18:33.544Z,14.90
2018-06-24T04:21:00.980Z,14.90
2018-06-24T04:23:28.415Z,14.90
2018-06-24T04:25:55.832Z,15.00
2018-06-24T04:28:23.277Z,15.00
2018-06-24T04:30:51.488Z,14.90
2018-06-24T04:33:18.959Z,15.00
2018-06-24T04:35:46.400Z,15.00
2018-06-24T04:38:13.811Z,15.00
2018-06-24T04:40:41.195Z,15.00
2018-06-24T04:43:08.618Z,15.00
2018-06-24T04:45:36.262Z,15.10
2018-06-24T04:48:03.736Z,15.10
2018-06-24T04:50:31.115Z,15.10
2018-06-24T04:52:58.515Z,15.10
2018-06-24T04:55:25.914Z,15.10
2018-06-24T04:57:53.439Z,15.10
2018-06-24T05:00:20.894Z,15.10
2018-06-24T05:02:48.259Z,15.20
2018-06-24T05:05:16.030Z,15.20
2018-06-24T05:07:43.484Z,15.10
2018-06-24T05:10:10.858Z,15.10
2018-06-24T05:12:38.799Z,15.00
2018-06-24T05:15:06.215Z,15.00
2018-06-24T05:17:33.732Z,15.10
2018-06-24T05:20:01.226Z,15.10
2018-06-24T05:22:28.655Z,15.20
2018-06-24T05:24:56.091Z,15.20
2018-06-24T05:27:23.504Z,15.20
2018-06-24T05:29:51.083Z,15.20
2018-06-24T05:32:18.668Z,15.30
2018-06-24T05:34:46.128Z,15.30
2018-06-24T05:37:13.595Z,15.40
2018-06-24T05:39:41.007Z,15.30
2018-06-24T05:42:08.532Z,15.40
2018-06-24T05:44:35.956Z,15.50
2018-06-24T05:47:03.415Z,15.50
2018-06-24T05:49:30.792Z,15.60
2018-06-24T05:51:58.222Z,15.60
2018-06-24T05:54:25.829Z,15.60
2018-06-24T05:56:53.357Z,15.70
2018-06-24T05:59:20.863Z,15.70
2018-06-24T06:01:48.291Z,15.70
2018-06-24T06:04:15.756Z,15.70
2018-06-24T06:06:43.468Z,15.80
2018-06-24T06:09:11.682Z,15.90
2018-06-24T06:11:39.128Z,16.10
2018-06-24T06:14:06.534Z,16.00
2018-06-24T06:16:35.104Z,16.10
2018-06-24T06:19:03.177Z,16.30
2018-06-24T06:21:30.999Z,16.40
2018-06-24T06:23:58.438Z,16.50
2018-06-24T06:26:25.877Z,16.60
2018-06-24T06:31:20.779Z,16.70
2018-06-24T06:33:48.208Z,16.80
2018-06-24T06:36:15.673Z,16.80
2018-06-24T06:38:43.100Z,16.80
2018-06-24T06:41:10.623Z,16.90
2018-06-24T06:43:38.036Z,16.90
2018-06-24T06:48:34.855Z,16.90
2018-06-24T06:51:02.270Z,16.90
2018-06-24T06:55:58.596Z,17.00
2018-06-24T06:58:25.984Z,17.00
2018-06-24T07:00:53.437Z,17.00
2018-06-24T07:03:20.837Z,17.00
2018-06-24T07:05:48.255Z,17.00
2018-06-24T07:08:15.789Z,17.00
2018-06-24T07:10:43.219Z,16.90
2018-06-24T07:13:10.819Z,17.00
2018-06-24T07:15:38.231Z,16.80
2018-06-24T07:18:05.633Z,16.90
2018-06-24T07:20:33.054Z,16.90
2018-06-24T07:23:00.479Z,16.80
2018-06-24T07:25:28.179Z,16.90
2018-06-24T07:27:55.699Z,16.90
2018-06-24T07:30:23.090Z,16.70
2018-06-24T07:32:50.687Z,16.80
2018-06-24T07:35:18.482Z,16.70
2018-06-24T07:37:45.947Z,16.60
2018-06-24T07:40:13.331Z,16.60
2018-06-24T07:42:40.731Z,16.50
2018-06-24T07:45:08.139Z,16.60
2018-06-24T07:47:35.586Z,16.60
2018-06-24T07:50:06.491Z,16.60
2018-06-24T07:52:34.075Z,16.70
2018-06-24T07:55:01.480Z,16.80
2018-06-24T07:57:28.991Z,16.70
2018-06-24T07:59:56.495Z,16.80
2018-06-24T08:02:23.907Z,16.90
2018-06-24T08:04:51.319Z,17.00
2018-06-24T08:07:18.849Z,17.10
2018-06-24T08:09:46.386Z,17.10
2018-06-24T08:12:15.680Z,17.20
2018-06-24T08:14:43.393Z,17.30
2018-06-24T08:17:11.246Z,17.40
2018-06-24T08:19:39.530Z,17.50
2018-06-24T08:22:14.868Z,17.40
2018-06-24T08:24:42.579Z,17.50
2018-06-24T08:27:09.928Z,17.50
2018-06-24T08:29:37.363Z,17.50
2018-06-24T08:32:04.886Z,17.70
2018-06-24T08:37:00.124Z,17.60
2018-06-24T08:39:27.484Z,17.60
2018-06-24T08:41:54.960Z,17.50
2018-06-24T08:44:22.451Z,17.40
2018-06-24T08:46:49.868Z,17.60
2018-06-24T08:49:17.322Z,17.80
2018-06-24T08:51:44.651Z,17.70
2018-06-24T08:56:40.996Z,17.70
2018-06-24T08:59:08.339Z,17.80
2018-06-24T09:01:35.713Z,17.80
2018-06-24T09:04:03.144Z,17.80
2018-06-24T09:06:30.545Z,17.90
2018-06-24T09:08:58.541Z,17.80
2018-06-24T09:11:25.899Z,17.80
2018-06-24T09:13:53.327Z,17.90
2018-06-24T09:16:20.696Z,18.00
2018-06-24T09:18:48.096Z,17.80
2018-06-24T09:21:15.500Z,17.90
2018-06-24T09:23:42.845Z,17.80
2018-06-24T09:26:10.159Z,17.80
2018-06-24T09:28:37.609Z,17.70
2018-06-24T09:31:04.971Z,18.10
2018-06-24T09:33:32.298Z,18.20
2018-06-24T09:35:59.694Z,18.30
2018-06-24T09:38:27.636Z,18.20
2018-06-24T09:40:55.084Z,18.30
2018-06-24T09:43:22.459Z,18.30
2018-06-24T09:45:49.947Z,18.30
2018-06-24T09:48:17.511Z,18.40
2018-06-24T09:50:44.853Z,18.30
2018-06-24T09:53:12.268Z,18.20
2018-06-24T09:55:39.699Z,18.20
2018-06-24T09:58:07.068Z,18.40
2018-06-24T10:00:35.010Z,18.70
2018-06-24T10:03:02.484Z,18.60
2018-06-24T10:05:29.872Z,18.50
2018-06-24T10:07:57.236Z,18.70
2018-06-24T10:10:24.597Z,18.90
2018-06-24T10:12:51.968Z,18.90
2018-06-24T10:15:19.555Z,19.10
2018-06-24T10:17:46.910Z,19.20
2018-06-24T10:20:14.321Z,19.10
2018-06-24T10:22:41.753Z,19.20
2018-06-24T10:25:09.094Z,19.30
2018-06-24T10:27:36.471Z,19.30
2018-06-24T10:30:04.576Z,19.00
2018-06-24T10:32:31.931Z,19.00
2018-06-24T10:34:59.350Z,19.00
2018-06-24T10:37:26.945Z,18.80
2018-06-24T10:39:54.301Z,18.70
2018-06-24T10:42:22.035Z,18.70
2018-06-24T10:44:49.421Z,18.80
2018-06-24T10:47:16.981Z,18.90
2018-06-24T10:49:44.367Z,18.80
2018-06-24T10:52:11.811Z,18.70
2018-06-24T10:54:39.228Z,18.80
2018-06-24T10:57:06.635Z,18.90
2018-06-24T10:59:34.076Z,19.40
2018-06-24T11:02:01.609Z,19.70
2018-06-24T11:04:28.910Z,19.90
2018-06-24T11:06:56.272Z,19.60
2018-06-24T11:09:23.768Z,19.80
2018-06-24T11:11:51.148Z,19.70
2018-06-24T11:14:19.060Z,19.70
2018-06-24T11:16:46.655Z,19.50
2018-06-24T11:19:14.159Z,19.70
2018-06-24T11:21:41.607Z,19.60
2018-06-24T11:24:09.018Z,19.30
2018-06-24T11:26:36.405Z,19.30
2018-06-24T11:29:03.976Z,19.20
2018-06-24T11:31:31.437Z,19.10
2018-06-24T11:33:58.857Z,19.20
2018-06-24T11:36:26.328Z,19.20
2018-06-24T11:38:53.715Z,19.30
2018-06-24T11:41:21.150Z,19.40
2018-06-24T11:43:48.559Z,19.30
2018-06-24T11:48:43.475Z,19.30
2018-06-24T11:51:10.928Z,19.40
2018-06-24T11:53:38.304Z,19.50
2018-06-24T11:56:05.757Z,19.30
2018-06-24T11:58:33.382Z,19.30
2018-06-24T12:01:01.044Z,19.30
2018-06-24T12:03:28.463Z,19.20
2018-06-24T12:05:55.871Z,19.10
2018-06-24T12:08:23.387Z,19.10
2018-06-24T12:13:18.401Z,19.00
2018-06-24T12:15:45.809Z,19.00
2018-06-24T12:18:13.181Z,19.00
2018-06-24T12:20:40.627Z,18.90
2018-06-24T12:23:07.991Z,18.70
2018-06-24T12:25:35.382Z,18.60
2018-06-24T12:28:02.853Z,18.70
2018-06-24T12:30:30.456Z,18.70
2018-06-24T12:32:57.835Z,18.70
2018-06-24T12:35:25.348Z,18.80
2018-06-24T12:37:52.704Z,18.80
2018-06-24T12:40:26.007Z,18.80
2018-06-24T12:42:53.444Z,18.70
2018-06-24T12:45:20.871Z,18.70
2018-06-24T12:47:52.399Z,18.60
2018-06-24T12:50:20.637Z,18.70
2018-06-24T12:52:48.114Z,18.70
2018-06-24T12:55:16.151Z,18.60
2018-06-24T12:57:48.630Z,18.60
2018-06-24T13:02:43.504Z,18.70
2018-06-24T13:05:10.948Z,18.70
2018-06-24T13:07:38.311Z,18.60
2018-06-24T13:10:06.172Z,18.60
2018-06-24T13:12:35.558Z,18.60
2018-06-24T13:15:03.639Z,18.70
2018-06-24T13:17:31.338Z,18.70
2018-06-24T13:19:58.765Z,18.50
2018-06-24T13:22:26.146Z,18.50
2018-06-24T13:24:58.509Z,18.50
2018-06-24T13:27:26.167Z,18.40
2018-06-24T13:29:53.720Z,18.30
2018-06-24T13:32:21.183Z,18.40
2018-06-24T13:34:49.055Z,18.60
2018-06-24T13:39:45.410Z,18.60
2018-06-24T13:42:12.854Z,18.70
2018-06-24T13:44:40.343Z,18.60
2018-06-24T13:47:07.694Z,18.60
2018-06-24T13:49:35.020Z,18.60
2018-06-24T13:52:02.419Z,18.80
2018-06-24T13:54:31.335Z,18.70
2018-06-24T13:56:58.725Z,18.70
2018-06-24T13:59:26.108Z,18.70
2018-06-24T14:01:53.505Z,18.60
2018-06-24T14:04:20.868Z,18.70
2018-06-24T14:06:48.255Z,18.80
2018-06-24T14:09:15.611Z,18.70
2018-06-24T14:11:42.951Z,18.70
2018-06-24T14:14:10.569Z,18.60
2018-06-24T14:16:38.202Z,18.70
2018-06-24T14:19:05.608Z,18.60
2018-06-24T14:21:33.057Z,18.50
2018-06-24T14:24:00.617Z,18.40
2018-06-24T14:26:28.096Z,18.40
2018-06-24T14:28:55.513Z,18.30
2018-06-24T14:31:22.944Z,18.30
2018-06-24T14:33:50.415Z,18.30
2018-06-24T14:36:17.871Z,18.30
2018-06-24T14:38:48.142Z,18.20
2018-06-24T14:41:15.530Z,18.20
2018-06-24T14:43:42.883Z,18.20
2018-06-24T14:46:10.285Z,18.30
2018-06-24T14:48:37.899Z,18.30
2018-06-24T14:51:05.713Z,18.30
2018-06-24T14:53:36.966Z,18.30
2018-06-24T14:56:04.315Z,18.30
2018-06-24T14:58:31.671Z,18.20
2018-06-24T15:00:59.074Z,18.20
2018-06-24T15:03:26.448Z,18.10
2018-06-24T15:05:53.902Z,18.10
2018-06-24T15:08:23.711Z,18.00
2018-06-24T15:10:51.122Z,17.90
2018-06-24T15:13:18.612Z,17.70
2018-06-24T15:15:46.284Z,17.80
2018-06-24T15:18:13.927Z,17.80
2018-06-24T15:20:41.472Z,17.80
2018-06-24T15:23:11.919Z,17.70
2018-06-24T15:25:39.316Z,17.80
2018-06-24T15:28:06.747Z,18.00
2018-06-24T15:30:34.266Z,17.90
2018-06-24T15:33:01.835Z,17.80
2018-06-24T15:35:29.305Z,17.80
2018-06-24T15:37:57.159Z,17.80
2018-06-24T15:40:24.736Z,17.70
2018-06-24T15:42:52.183Z,17.70
2018-06-24T15:45:19.735Z,17.70
2018-06-24T15:47:47.140Z,17.60
2018-06-24T15:50:14.536Z,17.60
2018-06-24T15:52:42.046Z,17.60
2018-06-24T15:55:09.402Z,17.50
2018-06-24T15:57:36.866Z,17.50
2018-06-24T16:00:04.632Z,17.50
2018-06-24T16:02:32.260Z,17.40
2018-06-24T16:04:59.690Z,17.40
2018-06-24T16:07:27.166Z,17.50
2018-06-24T16:09:54.611Z,17.50
2018-06-24T16:12:22.023Z,17.40
2018-06-24T16:17:17.044Z,17.50
2018-06-24T16:19:44.460Z,17.40
2018-06-24T16:22:12.072Z,17.40
2018-06-24T16:24:39.480Z,17.40
2018-06-24T16:27:06.984Z,17.50
2018-06-24T16:29:34.560Z,17.40
2018-06-24T16:32:02.016Z,17.40
2018-06-24T16:34:29.443Z,17.40
2018-06-24T16:36:56.857Z,17.50
2018-06-24T16:39:24.394Z,17.60
2018-06-24T16:41:51.972Z,17.60
2018-06-24T16:44:19.449Z,17.60
2018-06-24T16:46:46.889Z,17.40
2018-06-24T16:49:14.325Z,17.50
2018-06-24T16:51:41.720Z,17.50
2018-06-24T16:54:09.100Z,17.50
2018-06-24T16:56:36.470Z,17.60
2018-06-24T17:01:31.463Z,17.40
2018-06-24T17:03:58.808Z,17.60
2018-06-24T17:06:26.145Z,17.60
2018-06-24T17:08:53.550Z,17.60
2018-06-24T17:11:21.027Z,17.60
2018-06-24T17:13:48.447Z,17.60
2018-06-24T17:16:15.827Z,17.40
2018-06-24T17:18:43.215Z,17.40
2018-06-24T17:21:10.622Z,17.40
2018-06-24T17:23:38.000Z,17.40
2018-06-24T17:26:05.384Z,17.40
2018-06-24T17:28:32.750Z,17.50
2018-06-24T17:31:00.219Z,17.40
2018-06-24T17:33:27.664Z,17.30
2018-06-24T17:35:55.004Z,17.10
2018-06-24T17:38:22.457Z,17.10
2018-06-24T17:40:49.838Z,17.10
2018-06-24T17:48:12.143Z,17.10
2018-06-24T17:50:39.551Z,17.00
2018-06-24T17:53:07.147Z,17.10
2018-06-24T17:55:34.581Z,17.00
2018-06-24T17:58:02.035Z,17.10
2018-06-24T18:00:29.403Z,17.20
2018-06-24T18:02:56.758Z,17.20
2018-06-24T18:05:24.123Z,16.90
2018-06-24T18:07:51.543Z,17.10
2018-06-24T18:10:19.020Z,17.10
2018-06-24T18:12:46.615Z,17.10
2018-06-24T18:15:14.125Z,17.00
2018-06-24T18:17:41.408Z,17.10
2018-06-24T18:20:08.807Z,17.00
2018-06-24T18:22:36.304Z,17.00
2018-06-24T18:25:04.156Z,17.00
2018-06-24T18:27:31.612Z,16.90
2018-06-24T18:29:58.974Z,17.00
2018-06-24T18:32:26.331Z,17.10
2018-06-24T18:34:53.778Z,17.10
2018-06-24T18:37:21.267Z,17.10
2018-06-24T18:39:48.876Z,17.10
2018-06-24T18:42:16.219Z,17.10
2018-06-24T18:44:43.592Z,17.20
2018-06-24T18:47:10.969Z,17.20
2018-06-24T18:49:38.338Z,17.20
2018-06-24T18:52:05.797Z,17.10
2018-06-24T18:54:33.252Z,17.10
2018-06-24T18:57:00.679Z,17.10
2018-06-24T18:59:28.077Z,17.20
2018-06-24T19:01:55.557Z,17.20
2018-06-24T19:04:22.986Z,17.00
2018-06-24T19:06:50.377Z,17.10
2018-06-24T19:09:17.884Z,17.10
2018-06-24T19:11:45.275Z,17.10
2018-06-24T19:14:12.755Z,17.20
2018-06-24T19:16:40.828Z,16.90
2018-06-24T19:19:08.261Z,16.90
2018-06-24T19:21:35.684Z,17.10
2018-06-24T19:24:03.183Z,17.10
2018-06-24T19:26:30.675Z,17.00
2018-06-24T19:28:58.555Z,17.00
2018-06-24T19:31:26.013Z,17.00
2018-06-24T19:33:53.397Z,17.00
2018-06-24T19:36:20.961Z,16.80
2018-06-24T19:38:48.434Z,16.90
2018-06-24T19:41:16.035Z,16.70
2018-06-24T19:43:43.428Z,16.70
2018-06-24T19:46:10.919Z,16.70
2018-06-24T19:48:38.467Z,16.60
2018-06-24T19:51:06.807Z,16.50
2018-06-24T19:53:34.256Z,16.60
2018-06-24T19:56:01.739Z,16.70
2018-06-24T19:58:29.111Z,16.70
2018-06-24T20:00:56.479Z,16.60
2018-06-24T20:03:23.840Z,16.40
2018-06-24T20:05:51.170Z,16.40
2018-06-24T20:08:18.695Z,16.50
2018-06-24T20:10:46.104Z,16.40
2018-06-24T20:13:13.493Z,16.40
2018-06-24T20:18:08.304Z,16.50
2018-06-24T20:20:35.675Z,16.50
2018-06-24T20:23:02.995Z,16.30
2018-06-24T20:25:30.433Z,16.40
2018-06-24T20:27:57.862Z,16.50
2018-06-24T20:30:25.234Z,16.50
2018-06-24T20:32:52.600Z,16.50
2018-06-24T20:35:20.171Z,16.40
2018-06-24T20:37:47.581Z,16.40
2018-06-24T20:40:14.963Z,16.50
2018-06-24T20:42:42.333Z,16.50
2018-06-24T20:45:09.685Z,16.50
2018-06-24T20:47:37.118Z,16.40
2018-06-24T20:50:04.554Z,16.30
2018-06-24T20:52:31.905Z,16.40
2018-06-24T20:54:59.343Z,16.50
2018-06-24T20:57:26.795Z,16.50
2018-06-24T20:59:54.262Z,16.40
2018-06-24T21:02:21.623Z,16.40
2018-06-24T21:04:48.999Z,16.50
2018-06-24T21:07:16.838Z,16.50
2018-06-24T21:09:44.426Z,16.40
2018-06-24T21:12:11.912Z,16.20
2018-06-24T21:14:39.239Z,16.30
2018-06-24T21:17:06.674Z,16.20
2018-06-24T21:19:34.060Z,16.20
2018-06-24T21:22:01.432Z,16.20
2018-06-24T21:24:36.114Z,16.10
2018-06-24T21:27:03.649Z,16.10
2018-06-24T21:29:31.016Z,16.00
2018-06-24T21:31:58.471Z,16.10
2018-06-24T21:34:25.940Z,16.10
2018-06-24T21:36:53.871Z,16.20
2018-06-24T21:39:21.275Z,16.10
2018-06-24T21:41:48.707Z,16.20
2018-06-24T21:44:16.059Z,16.20
2018-06-24T21:46:43.424Z,16.00
2018-06-24T21:49:10.749Z,16.00
2018-06-24T21:51:38.339Z,16.10
2018-06-24T21:54:06.293Z,16.10
2018-06-24T21:56:33.768Z,16.10
2018-06-24T21:59:01.514Z,16.10
2018-06-24T22:01:28.935Z,16.00
2018-06-24T22:03:56.366Z,16.10
2018-06-24T22:06:23.882Z,16.10
2018-06-24T22:08:51.268Z,16.10
2018-06-24T22:11:19.174Z,16.20
2018-06-24T22:13:46.835Z,16.20
2018-06-24T22:16:14.223Z,16.10
2018-06-24T22:18:41.696Z,16.10
2018-06-24T22:21:09.237Z,16.10
2018-06-24T22:23:36.661Z,16.10
2018-06-24T22:26:04.128Z,16.10
2018-06-24T22:28:31.637Z,16.10
2018-06-24T22:30:59.319Z,16.10
2018-06-24T22:33:26.766Z,16.10
2018-06-24T22:35:54.201Z,16.00
2018-06-24T22:38:21.630Z,15.90
2018-06-24T22:40:49.067Z,15.90
2018-06-24T22:43:16.502Z,16.10
2018-06-24T22:45:44.203Z,16.10
2018-06-24T22:48:11.672Z,16.00
2018-06-24T22:50:39.282Z,16.10
2018-06-24T22:55:34.180Z,15.90
2018-06-24T22:58:01.663Z,15.90
2018-06-24T23:00:29.117Z,15.90
2018-06-24T23:03:01.207Z,15.90
2018-06-24T23:05:28.639Z,15.90
2018-06-24T23:07:56.245Z,16.00
2018-06-24T23:10:23.682Z,16.00
2018-06-24T23:12:51.250Z,16.00
2018-06-24T23:15:18.909Z,15.90
2018-06-24T23:17:46.382Z,15.90
2018-06-24T23:20:13.930Z,15.90
2018-06-24T23:22:41.439Z,15.90
2018-06-24T23:25:09.049Z,15.90
2018-06-24T23:27:36.511Z,16.00
2018-06-24T23:30:04.155Z,16.00
2018-06-24T23:32:31.661Z,15.90
2018-06-24T23:34:59.098Z,15.90
2018-06-24T23:37:26.626Z,15.90
2018-06-24T23:39:54.055Z,15.90
2018-06-24T23:42:21.563Z,15.90
2018-06-24T23:44:48.998Z,16.00
2018-06-24T23:47:16.405Z,15.90
2018-06-24T23:49:43.822Z,16.00
2018-06-24T23:52:11.280Z,16.00
2018-06-24T23:54:38.731Z,16.00
2018-06-24T23:57:06.025Z,16.00
2018-06-24T23:59:33.367Z,15.90
